Arthur Maersk — OXJH2 — position and weather

sailwx.info

Track history (hours):
 
Tides and Currents Weather Stations Pressure Air Temp Water Temp Dewpoint Dewpoint Depression Visibility Wind Speed Wind Dir Waves Ship Positions

Arthur Maersk

Last reported at 2015-Jul-06 15:34 UTC. Time now 2015-Jul-06 15:40 UTC.
Position N 36°21' E 014°60'.

Length 352 m; draft 13.2 m.

Type: Cargo ship. MMSI: 220221000.

Date/timePositionNaut miles runAvg speedWind from/ knotsBaromVisibWave heightAir tempDewpointWater temp
2015-Jul-06 15:34N 36°21' E 014°60'1818.2
2015-Jul-06 14:34N 36°27' E 014°38'1817.7
2015-Jul-06 13:34N 36°33' E 014°17'1818.4
2015-Jul-06 12:34N 36°38' E 013°55'1818.4
2015-Jul-06 11:34N 36°44' E 013°34'1818.4
2015-Jul-06 10:34N 36°49' E 013°11'1818.3
2015-Jul-06 09:34N 36°54' E 012°49'1818.4
2015-Jul-06 08:34N 37°01' E 012°28'1818.1
2015-Jul-06 07:34N 37°06' E 012°07'1817.9
2015-Jul-06 06:34N 37°12' E 011°45'1817.7
2015-Jul-06 05:34N 37°18' E 011°24'1818.0
2015-Jul-06 04:34N 37°25' E 011°04'1818.2
2015-Jul-06 03:34N 37°29' E 010°41'1817.8
2015-Jul-06 02:33N 37°33' E 010°19'1818.0
2015-Jul-06 01:33N 37°33' E 009°57'1818.0
2015-Jul-06 00:33N 37°34' E 009°34'2717.9
2015-Jul-05 23:03N 37°42' E 009°02'917.6
2015-Jul-05 22:33N 37°44' E 008°51'1817.5
2015-Jul-05 21:33N 37°47' E 008°29'5317.2
2015-Jul-05 18:29N 37°57' E 007°23'1717.8
2015-Jul-05 17:33N 38°00' E 007°02'1817.7
2015-Jul-05 16:33N 37°59' E 006°40'1817.9
2015-Jul-05 15:33N 37°55' E 006°18'1817.6
2015-Jul-05 14:30N 37°53' E 005°55'1717.7
2015-Jul-05 13:33N 37°51' E 005°34'1817.6
2015-Jul-05 12:33N 37°46' E 005°12'1717.4
2015-Jul-05 11:33N 37°41' E 004°51'1817.7
2015-Jul-05 10:33N 37°36' E 004°30'1918.6
2015-Jul-05 09:33N 37°30' E 004°07'1818.3
2015-Jul-05 08:33N 37°25' E 003°45'1817.8
2015-Jul-05 07:33N 37°20' E 003°24'1817.9
2015-Jul-05 06:33N 37°15' E 003°02'1817.9
2015-Jul-05 05:33N 37°09' E 002°41'1817.9
2015-Jul-05 04:33N 37°04' E 002°19'1817.8
2015-Jul-05 03:34N 36°60' E 001°58'1717.4
2015-Jul-05 02:33N 36°55' E 001°37'1817.5
2015-Jul-05 01:33N 36°50' E 001°16'1917.4
2015-Jul-05 00:29N 36°46' E 000°53'1617.5
2015-Jul-04 23:33N 36°42' E 000°33'1817.9
2015-Jul-04 22:33N 36°37' E 000°12'1717.1
2015-Jul-04 21:33N 36°33' W 000°09'4 4.1
2015-Jul-04 20:33N 36°32' W 000°14'1 0.8
2015-Jul-04 19:33N 36°32' W 000°15'1110.8
2015-Jul-04 18:33N 36°29' W 000°28'1717.3
2015-Jul-04 17:33N 36°25' W 000°48'1817.3
2015-Jul-04 16:33N 36°21' W 001°10'1717.0
2015-Jul-04 15:33N 36°16' W 001°30'1716.9
2015-Jul-04 14:33N 36°12' W 001°50'1916.8
2015-Jul-04 13:27N 36°09' W 002°13'1617.0
2015-Jul-04 12:29N 36°07' W 002°33'2217.0
2015-Jul-04 11:13N 36°07' W 002°60'10618.2
2015-Jul-04 05:23N 35°59' W 005°11'1518.9
2015-Jul-04 04:34N 35°56' W 005°29'7016.8
2015-Jul-04 00:25N 35°54' W 006°55'1717.2
2015-Jul-03 23:25N 35°54' W 007°17'1517.3
2015-Jul-03 22:33N 35°54' W 007°35'1717.4
2015-Jul-03 21:33N 35°54' W 007°56'1917.3
2015-Jul-03 20:26N 35°55' W 008°20'1517.4
2015-Jul-03 19:34N 35°57' W 008°39'1717.4
2015-Jul-03 18:33N 35°57' W 009°00'1717.2
2015-Jul-03 17:33N 35°58' W 009°22'1817.3
2015-Jul-03 16:29N 35°59' W 009°44'1717.2
2015-Jul-03 15:31N 36°01' W 010°05'2617.6
2015-Jul-03 14:04N 36°08' W 010°35'1017.7
2015-Jul-03 13:30N 36°11' W 010°48'2017.6
2015-Jul-03 12:22N 36°15' W 011°11'3817.7
2015-Jul-03 10:14N 36°24' W 011°57'1217.6
2015-Jul-03 09:33N 36°27' W 012°11'56217.4
2015-Jul-02 01:14N 38°18' W 023°45'1116.8
2015-Jul-02 00:33N 38°19' W 023°60'1716.6
2015-Jul-01 23:33N 38°21' W 024°21'1716.7
2015-Jul-01 22:33N 38°23' W 024°42'1716.5
2015-Jul-01 21:33N 38°25' W 025°03'1616.5
2015-Jul-01 20:33N 38°24' W 025°23'1616.1
2015-Jul-01 19:34N 38°23' W 025°44'1615.9
2015-Jul-01 18:33N 38°22' W 026°04'1616.1
2015-Jul-01 17:33N 38°21' W 026°25'1616.2
2015-Jul-01 16:33N 38°20' W 026°45'1616.2
2015-Jul-01 15:33N 38°19' W 027°06'1616.4
2015-Jul-01 14:33N 38°18' W 027°27'1616.1
2015-Jul-01 13:33N 38°17' W 027°47'1616.4
2015-Jul-01 12:33N 38°16' W 028°08'1616.3
2015-Jul-01 11:33N 38°15' W 028°29'1616.4
2015-Jul-01 10:33N 38°14' W 028°50'1615.9
2015-Jul-01 09:33N 38°13' W 029°10'1615.8
2015-Jul-01 08:33N 38°12' W 029°30'1616.0
2015-Jul-01 07:33N 38°11' W 029°50'1615.7
2015-Jul-01 06:33N 38°10' W 030°10'1616.0
2015-Jul-01 05:33N 38°09' W 030°30'  
Track history (hours):
 
Tides and Currents Weather Stations Pressure Air Temp Water Temp Dewpoint Dewpoint Depression Visibility Wind Speed Wind Dir Waves Ship Positions

Arthur Maersk

Last reported at 2015-Jul-06 15:34 UTC. Time now 2015-Jul-06 15:40 UTC.
Position N 36°21' E 014°60'.

Length 352 m; draft 13.2 m.

Type: Cargo ship. MMSI: 220221000.

Date/timePositionNaut miles runAvg speedWind from/ knotsBaromVisibWave heightAir tempDewpointWater temp
2015-Jul-06 15:34N 36°21' E 014°60'1818.2
2015-Jul-06 14:34N 36°27' E 014°38'1817.7
2015-Jul-06 13:34N 36°33' E 014°17'1818.4
2015-Jul-06 12:34N 36°38' E 013°55'1818.4
2015-Jul-06 11:34N 36°44' E 013°34'1818.4
2015-Jul-06 10:34N 36°49' E 013°11'1818.3
2015-Jul-06 09:34N 36°54' E 012°49'1818.4
2015-Jul-06 08:34N 37°01' E 012°28'1818.1
2015-Jul-06 07:34N 37°06' E 012°07'1817.9
2015-Jul-06 06:34N 37°12' E 011°45'1817.7
2015-Jul-06 05:34N 37°18' E 011°24'1818.0
2015-Jul-06 04:34N 37°25' E 011°04'1818.2
2015-Jul-06 03:34N 37°29' E 010°41'1817.8
2015-Jul-06 02:33N 37°33' E 010°19'1818.0
2015-Jul-06 01:33N 37°33' E 009°57'1818.0
2015-Jul-06 00:33N 37°34' E 009°34'2717.9
2015-Jul-05 23:03N 37°42' E 009°02'917.6
2015-Jul-05 22:33N 37°44' E 008°51'1817.5
2015-Jul-05 21:33N 37°47' E 008°29'5317.2
2015-Jul-05 18:29N 37°57' E 007°23'1717.8
2015-Jul-05 17:33N 38°00' E 007°02'1817.7
2015-Jul-05 16:33N 37°59' E 006°40'1817.9
2015-Jul-05 15:33N 37°55' E 006°18'1817.6
2015-Jul-05 14:30N 37°53' E 005°55'1717.7
2015-Jul-05 13:33N 37°51' E 005°34'1817.6
2015-Jul-05 12:33N 37°46' E 005°12'1717.4
2015-Jul-05 11:33N 37°41' E 004°51'1817.7
2015-Jul-05 10:33N 37°36' E 004°30'1918.6
2015-Jul-05 09:33N 37°30' E 004°07'1818.3
2015-Jul-05 08:33N 37°25' E 003°45'1817.8
2015-Jul-05 07:33N 37°20' E 003°24'1817.9
2015-Jul-05 06:33N 37°15' E 003°02'1817.9
2015-Jul-05 05:33N 37°09' E 002°41'1817.9
2015-Jul-05 04:33N 37°04' E 002°19'1817.8
2015-Jul-05 03:34N 36°60' E 001°58'1717.4
2015-Jul-05 02:33N 36°55' E 001°37'1817.5
2015-Jul-05 01:33N 36°50' E 001°16'1917.4
2015-Jul-05 00:29N 36°46' E 000°53'1617.5
2015-Jul-04 23:33N 36°42' E 000°33'1817.9
2015-Jul-04 22:33N 36°37' E 000°12'1717.1
2015-Jul-04 21:33N 36°33' W 000°09'4 4.1
2015-Jul-04 20:33N 36°32' W 000°14'1 0.8
2015-Jul-04 19:33N 36°32' W 000°15'1110.8
2015-Jul-04 18:33N 36°29' W 000°28'1717.3
2015-Jul-04 17:33N 36°25' W 000°48'1817.3
2015-Jul-04 16:33N 36°21' W 001°10'1717.0
2015-Jul-04 15:33N 36°16' W 001°30'1716.9
2015-Jul-04 14:33N 36°12' W 001°50'1916.8
2015-Jul-04 13:27N 36°09' W 002°13'1617.0
2015-Jul-04 12:29N 36°07' W 002°33'2217.0
2015-Jul-04 11:13N 36°07' W 002°60'10618.2
2015-Jul-04 05:23N 35°59' W 005°11'1518.9
2015-Jul-04 04:34N 35°56' W 005°29'7016.8
2015-Jul-04 00:25N 35°54' W 006°55'1717.2
2015-Jul-03 23:25N 35°54' W 007°17'1517.3
2015-Jul-03 22:33N 35°54' W 007°35'1717.4
2015-Jul-03 21:33N 35°54' W 007°56'1917.3
2015-Jul-03 20:26N 35°55' W 008°20'1517.4
2015-Jul-03 19:34N 35°57' W 008°39'1717.4
2015-Jul-03 18:33N 35°57' W 009°00'1717.2
2015-Jul-03 17:33N 35°58' W 009°22'1817.3
2015-Jul-03 16:29N 35°59' W 009°44'1717.2
2015-Jul-03 15:31N 36°01' W 010°05'2617.6
2015-Jul-03 14:04N 36°08' W 010°35'1017.7
2015-Jul-03 13:30N 36°11' W 010°48'2017.6
2015-Jul-03 12:22N 36°15' W 011°11'3817.7
2015-Jul-03 10:14N 36°24' W 011°57'1217.6
2015-Jul-03 09:33N 36°27' W 012°11'56217.4
2015-Jul-02 01:14N 38°18' W 023°45'1116.8
2015-Jul-02 00:33N 38°19' W 023°60'1716.6
2015-Jul-01 23:33N 38°21' W 024°21'1716.7
2015-Jul-01 22:33N 38°23' W 024°42'1716.5
2015-Jul-01 21:33N 38°25' W 025°03'1616.5
2015-Jul-01 20:33N 38°24' W 025°23'1616.1
2015-Jul-01 19:34N 38°23' W 025°44'1615.9
2015-Jul-01 18:33N 38°22' W 026°04'1616.1
2015-Jul-01 17:33N 38°21' W 026°25'1616.2
2015-Jul-01 16:33N 38°20' W 026°45'1616.2
2015-Jul-01 15:33N 38°19' W 027°06'1616.4
2015-Jul-01 14:33N 38°18' W 027°27'1616.1
2015-Jul-01 13:33N 38°17' W 027°47'1616.4
2015-Jul-01 12:33N 38°16' W 028°08'1616.3
2015-Jul-01 11:33N 38°15' W 028°29'1616.4
2015-Jul-01 10:33N 38°14' W 028°50'1615.9
2015-Jul-01 09:33N 38°13' W 029°10'1615.8
2015-Jul-01 08:33N 38°12' W 029°30'1616.0
2015-Jul-01 07:33N 38°11' W 029°50'1615.7
2015-Jul-01 06:33N 38°10' W 030°10'1616.0
2015-Jul-01 05:33N 38°09' W 030°30'  

Dump ship's entire track history